Time;durP1;ratioP1;P1;durP2;ratioP2;P2;SDS_P1;SDS_P2;PMS_P1;PMS_P2;Temp;Humidity;BMP_temperature;BMP_pressure;BME280_temperature;BME280_humidity;BME280_pressure;Samples;Min_cycle;Max_cycle;Signal;HPM_P1;HPM_P2
2022/09/28 00:00:07;;;;;;;3.53;2.33;;;11.50;99.90;;;;;;5001904;28;20105;-73
2022/09/28 00:02:34;;;;;;;5.85;2.70;;;11.50;99.90;;;;;;4985586;28;20032;-73
2022/09/28 00:05:01;;;;;;;4.07;2.53;;;11.50;99.90;;;;;;5011027;28;20077;-73
2022/09/28 00:07:28;;;;;;;2.97;2.25;;;11.60;99.90;;;;;;4999294;28;20136;-73
2022/09/28 00:09:53;;;;;;;4.10;2.28;;;11.50;99.90;;;;;;5011845;28;20068;-73
2022/09/28 00:12:19;;;;;;;3.63;2.35;;;11.50;99.90;;;;;;5001470;28;20050;-73
2022/09/28 00:14:45;;;;;;;3.47;2.33;;;11.60;99.90;;;;;;5011934;28;20041;-73
2022/09/28 00:17:12;;;;;;;4.75;2.85;;;11.60;99.90;;;;;;5009457;28;20033;-73
2022/09/28 00:19:39;;;;;;;3.63;2.83;;;11.60;99.90;;;;;;5010362;28;20488;-73
2022/09/28 00:22:05;;;;;;;5.63;2.78;;;11.60;99.90;;;;;;5005212;28;20503;-73
2022/09/28 00:24:31;;;;;;;4.22;2.58;;;11.60;99.90;;;;;;5011939;28;20041;-73
2022/09/28 00:27:00;;;;;;;2.90;2.28;;;11.60;99.90;;;;;;5003745;28;20504;-74
2022/09/28 00:29:28;;;;;;;4.88;3.13;;;11.60;99.90;;;;;;5012081;28;20130;-73
2022/09/28 00:32:01;;;;;;;3.92;2.58;;;11.60;99.90;;;;;;5009652;28;20025;-73
2022/09/28 00:34:31;;;;;;;4.03;2.65;;;11.60;99.90;;;;;;5007611;28;20157;-73
2022/09/28 00:36:58;;;;;;;3.70;2.50;;;11.60;99.90;;;;;;5004060;28;20381;-73
2022/09/28 00:39:24;;;;;;;6.05;2.80;;;11.60;99.90;;;;;;5011783;28;20037;-73
2022/09/28 00:41:50;;;;;;;4.63;2.47;;;11.60;99.90;;;;;;5005158;28;20035;-73
2022/09/28 00:44:24;;;;;;;4.07;2.50;;;11.60;99.90;;;;;;5009650;28;20069;-72
2022/09/28 00:47:09;;;;;;;3.20;2.58;;;11.60;99.90;;;;;;4997720;28;20401;-72
2022/09/28 00:49:50;;;;;;;4.00;2.60;;;11.60;99.90;;;;;;5010433;28;20109;-73
2022/09/28 00:52:29;;;;;;;3.50;2.53;;;11.60;99.90;;;;;;5002562;28;20417;-72
2022/09/28 00:54:58;;;;;;;3.80;2.50;;;11.60;99.90;;;;;;4991860;28;20062;-72
2022/09/28 00:57:25;;;;;;;3.47;2.30;;;11.50;99.90;;;;;;5008274;28;20397;-72
2022/09/28 00:59:51;;;;;;;5.07;2.40;;;11.60;99.90;;;;;;5015199;28;20018;-72
2022/09/28 01:02:17;;;;;;;3.25;2.53;;;11.50;99.90;;;;;;5006790;28;20049;-72
2022/09/28 01:04:43;;;;;;;3.45;2.58;;;11.60;99.90;;;;;;5012670;28;20036;-73
2022/09/28 01:07:11;;;;;;;6.13;2.40;;;11.60;99.90;;;;;;5008168;28;20097;-72
2022/09/28 01:09:39;;;;;;;4.20;2.63;;;11.70;99.90;;;;;;5010656;28;20034;-72
2022/09/28 01:12:06;;;;;;;3.35;2.53;;;11.60;99.90;;;;;;4995918;28;20061;-72
2022/09/28 01:14:32;;;;;;;3.70;2.60;;;11.70;99.90;;;;;;5014372;28;20037;-72
2022/09/28 01:17:13;;;;;;;3.88;2.55;;;11.70;99.90;;;;;;5021675;28;20042;-72
2022/09/28 01:20:04;;;;;;;5.18;2.83;;;11.70;99.90;;;;;;5016701;28;20060;-72
2022/09/28 01:22:33;;;;;;;3.78;2.80;;;11.70;99.90;;;;;;5015524;28;20034;-72
2022/09/28 01:25:09;;;;;;;3.33;2.72;;;11.70;99.90;;;;;;4993580;28;20045;-72
2022/09/28 01:27:43;;;;;;;4.10;2.72;;;11.70;99.90;;;;;;5019137;28;20046;-72
2022/09/28 01:30:17;;;;;;;3.80;2.78;;;11.70;99.90;;;;;;5012972;28;20018;-72
2022/09/28 01:32:57;;;;;;;3.55;2.65;;;11.70;99.90;;;;;;5018123;28;20054;-72
2022/09/28 01:35:51;;;;;;;3.92;2.58;;;11.70;99.90;;;;;;5010985;28;20101;-72
2022/09/28 01:38:24;;;;;;;3.60;2.47;;;11.70;99.90;;;;;;4999988;28;20026;-72
2022/09/28 01:40:51;;;;;;;3.63;2.40;;;11.70;99.90;;;;;;5010868;28;20053;-71
2022/09/28 01:43:24;;;;;;;3.53;2.42;;;11.80;99.90;;;;;;5000687;28;20022;-72
2022/09/28 01:46:00;;;;;;;5.38;2.70;;;11.70;99.90;;;;;;5017901;28;20042;-71
2022/09/28 01:48:38;;;;;;;3.72;2.30;;;11.80;99.90;;;;;;5008701;28;20045;-71
2022/09/28 01:51:09;;;;;;;4.13;2.85;;;11.80;99.90;;;;;;5021754;28;20057;-72
2022/09/28 01:53:40;;;;;;;4.18;2.63;;;11.80;99.90;;;;;;5014608;28;20056;-70
2022/09/28 01:56:11;;;;;;;3.63;2.63;;;11.80;99.90;;;;;;5004499;28;20081;-71
2022/09/28 01:58:42;;;;;;;3.83;2.83;;;11.80;99.90;;;;;;5009083;28;20030;-72
2022/09/28 02:01:15;;;;;;;3.75;2.60;;;11.80;99.90;;;;;;5019259;28;20026;-72
2022/09/28 02:03:59;;;;;;;4.13;2.78;;;11.80;99.90;;;;;;5016493;28;20030;-70
2022/09/28 02:06:31;;;;;;;4.50;3.10;;;11.80;99.90;;;;;;5013163;28;20054;-72
2022/09/28 02:09:04;;;;;;;3.88;2.72;;;11.80;99.90;;;;;;5008668;28;20030;-71
2022/09/28 02:11:31;;;;;;;5.45;3.25;;;11.90;99.90;;;;;;5015280;28;20057;-72
2022/09/28 02:14:09;;;;;;;3.65;2.80;;;11.90;99.90;;;;;;5016645;28;20020;-72
2022/09/28 02:16:39;;;;;;;3.85;2.90;;;11.90;99.90;;;;;;5000842;28;20025;-72
2022/09/28 02:19:10;;;;;;;4.15;2.72;;;11.90;99.90;;;;;;4997664;28;20033;-72
2022/09/28 02:21:45;;;;;;;4.40;2.92;;;11.90;99.90;;;;;;5019710;28;20033;-71
2022/09/28 02:24:18;;;;;;;4.88;3.15;;;11.90;99.90;;;;;;5016555;28;20056;-72
2022/09/28 02:26:45;;;;;;;5.22;3.08;;;11.90;99.90;;;;;;5013292;28;20056;-72
2022/09/28 02:29:12;;;;;;;4.80;3.17;;;11.90;99.90;;;;;;4997427;28;20034;-71
2022/09/28 02:31:38;;;;;;;4.18;3.08;;;11.90;99.90;;;;;;4999253;28;20022;-71
2022/09/28 02:34:03;;;;;;;4.07;3.30;;;11.90;99.90;;;;;;5013592;28;20037;-73
2022/09/28 02:36:30;;;;;;;5.05;3.47;;;11.90;99.90;;;;;;5015503;28;20033;-72
2022/09/28 02:38:57;;;;;;;4.68;3.35;;;11.90;99.90;;;;;;4993574;28;20028;-73
2022/09/28 02:41:47;;;;;;;3.90;3.00;;;11.90;99.90;;;;;;5001140;28;20171;-73
2022/09/28 02:44:50;;;;;;;4.50;3.40;;;11.80;99.90;;;;;;5008780;28;20033;-73
2022/09/28 02:47:33;;;;;;;4.47;3.60;;;11.80;99.90;;;;;;5012310;28;20045;-72
2022/09/28 02:50:22;;;;;;;4.13;3.28;;;11.70;99.90;;;;;;4994610;28;20038;-73
2022/09/28 02:53:14;;;;;;;4.90;3.40;;;11.70;99.90;;;;;;5009619;28;20026;-73
2022/09/28 02:55:58;;;;;;;5.50;4.35;;;11.70;99.90;;;;;;5012806;28;20093;-73
2022/09/28 02:58:35;;;;;;;6.22;3.90;;;11.70;99.90;;;;;;5003938;28;20062;-73
2022/09/28 03:01:25;;;;;;;4.55;3.13;;;11.70;99.90;;;;;;4991838;28;20026;-72
2022/09/28 03:04:12;;;;;;;5.97;3.60;;;11.60;99.90;;;;;;5004312;28;20034;-73
2022/09/28 03:07:09;;;;;;;5.03;3.83;;;11.60;99.90;;;;;;5012881;28;20065;-73
2022/09/28 03:09:52;;;;;;;5.32;3.72;;;11.60;99.90;;;;;;5010671;28;20515;-73
2022/09/28 03:12:19;;;;;;;5.32;3.60;;;11.60;99.90;;;;;;5013253;28;20048;-73
2022/09/28 03:14:46;;;;;;;4.82;3.72;;;11.60;99.90;;;;;;4982120;28;20038;-74
2022/09/28 03:17:12;;;;;;;6.40;4.15;;;11.60;99.90;;;;;;4999988;28;20520;-72
2022/09/28 03:19:38;;;;;;;5.50;3.78;;;11.60;99.90;;;;;;5002557;28;20034;-73
2022/09/28 03:22:06;;;;;;;6.65;4.10;;;11.60;99.90;;;;;;4996657;28;20049;-73
2022/09/28 03:24:32;;;;;;;5.70;3.97;;;11.60;99.90;;;;;;5006141;28;20040;-72
2022/09/28 03:26:58;;;;;;;5.82;4.50;;;11.50;99.90;;;;;;5008455;28;20026;-73
2022/09/28 03:29:23;;;;;;;6.50;4.32;;;11.50;99.90;;;;;;5003509;28;20062;-73
2022/09/28 03:31:49;;;;;;;6.68;4.57;;;11.50;99.90;;;;;;4993524;28;20397;-73
2022/09/28 03:34:14;;;;;;;6.47;4.10;;;11.50;99.90;;;;;;5008800;28;20555;-73
2022/09/28 03:36:40;;;;;;;5.63;4.30;;;11.50;99.90;;;;;;5010555;28;20109;-73
2022/09/28 03:39:05;;;;;;;7.25;4.38;;;11.50;99.90;;;;;;5013662;28;20071;-74
2022/09/28 03:41:31;;;;;;;6.28;4.15;;;11.50;99.90;;;;;;5005501;28;20060;-72
2022/09/28 03:43:58;;;;;;;6.03;4.07;;;11.50;99.90;;;;;;4989317;28;20116;-73
2022/09/28 03:46:23;;;;;;;5.38;3.97;;;11.40;99.90;;;;;;4995615;28;20081;-73
2022/09/28 03:48:49;;;;;;;6.88;4.32;;;11.30;99.90;;;;;;5004988;28;20021;-73
2022/09/28 03:51:16;;;;;;;6.70;4.53;;;11.30;99.90;;;;;;5011168;28;20056;-73
2022/09/28 03:53:42;;;;;;;6.07;4.60;;;11.30;99.90;;;;;;5007036;28;20064;-73
2022/09/28 03:56:11;;;;;;;7.05;4.50;;;11.30;99.90;;;;;;4999456;28;20493;-73
2022/09/28 03:58:37;;;;;;;5.82;4.43;;;11.20;99.90;;;;;;5004163;28;20057;-73
2022/09/28 04:01:05;;;;;;;6.70;4.43;;;11.20;99.90;;;;;;5005164;28;20045;-73
2022/09/28 04:03:31;;;;;;;6.40;4.60;;;11.10;99.90;;;;;;5004700;28;20036;-73
2022/09/28 04:05:58;;;;;;;6.40;4.05;;;11.10;99.90;;;;;;5011076;28;20141;-73
2022/09/28 04:08:24;;;;;;;5.65;4.25;;;11.00;99.90;;;;;;5001868;28;20030;-73
2022/09/28 04:10:49;;;;;;;6.57;4.50;;;11.00;99.90;;;;;;5012629;28;20041;-73
2022/09/28 04:13:15;;;;;;;9.15;4.00;;;11.00;99.90;;;;;;5006796;28;20049;-73
2022/09/28 04:15:42;;;;;;;6.80;4.60;;;11.00;99.90;;;;;;4993603;28;20429;-73
2022/09/28 04:18:12;;;;;;;5.72;4.25;;;10.90;99.90;;;;;;4988728;28;20027;-73
2022/09/28 04:20:40;;;;;;;6.40;4.18;;;10.90;99.90;;;;;;4996569;28;20041;-73
2022/09/28 04:23:06;;;;;;;8.35;4.57;;;10.90;99.90;;;;;;5011202;28;20073;-73
2022/09/28 04:25:31;;;;;;;6.00;4.10;;;10.90;99.90;;;;;;5010897;28;20057;-72
2022/09/28 04:30:41;;;;;;;6.05;4.20;;;10.80;99.90;;;;;;5011767;28;20153;-71
2022/09/28 04:33:07;;;;;;;6.82;4.50;;;10.80;99.90;;;;;;5008612;28;20109;-73
2022/09/28 04:35:32;;;;;;;6.10;4.28;;;10.70;99.90;;;;;;5014513;28;20366;-73
2022/09/28 04:37:58;;;;;;;9.23;4.60;;;10.70;99.90;;;;;;5007299;28;20018;-73
2022/09/28 04:40:24;;;;;;;8.25;5.10;;;10.80;99.90;;;;;;5005884;28;20029;-74
2022/09/28 04:42:54;;;;;;;5.65;4.18;;;10.80;99.90;;;;;;5008540;28;20034;-73
2022/09/28 04:45:19;;;;;;;7.35;4.97;;;10.80;99.90;;;;;;5002256;28;20574;-74
2022/09/28 04:47:45;;;;;;;6.70;4.55;;;10.80;99.90;;;;;;4993951;28;20034;-73
2022/09/28 04:50:11;;;;;;;8.50;4.72;;;10.80;99.90;;;;;;5002167;28;20053;-73
2022/09/28 04:52:36;;;;;;;8.45;4.78;;;10.90;99.90;;;;;;5010111;28;20084;-73
2022/09/28 04:55:02;;;;;;;6.93;4.70;;;10.90;99.90;;;;;;5000665;28;20050;-73
2022/09/28 04:57:28;;;;;;;8.38;4.80;;;10.90;99.90;;;;;;5010752;28;20026;-74
2022/09/28 04:59:53;;;;;;;7.82;5.20;;;11.00;99.90;;;;;;5003047;28;20032;-72
2022/09/28 05:02:19;;;;;;;6.75;4.53;;;11.00;99.90;;;;;;5013441;28;20036;-73
2022/09/28 05:04:44;;;;;;;5.90;3.95;;;11.00;99.90;;;;;;5000461;28;20030;-73
2022/09/28 05:07:10;;;;;;;6.75;4.47;;;11.00;99.90;;;;;;5015027;28;20034;-73
2022/09/28 05:09:36;;;;;;;6.35;4.50;;;11.00;99.90;;;;;;4996846;28;20437;-73
2022/09/28 05:12:01;;;;;;;7.80;4.50;;;11.00;99.90;;;;;;5014686;28;20120;-73
2022/09/28 05:14:27;;;;;;;8.05;5.05;;;11.10;99.90;;;;;;5014863;28;20045;-73
2022/09/28 05:16:52;;;;;;;6.68;4.82;;;11.00;99.90;;;;;;5015086;28;20844;-73
2022/09/28 05:19:18;;;;;;;6.53;4.50;;;11.10;99.90;;;;;;4999463;28;20053;-73
2022/09/28 05:21:44;;;;;;;6.35;4.80;;;11.10;99.90;;;;;;5004550;28;20388;-73
2022/09/28 05:24:11;;;;;;;9.45;4.55;;;11.10;99.90;;;;;;5017146;28;20021;-73
2022/09/28 05:26:38;;;;;;;7.68;4.80;;;11.20;99.90;;;;;;5014822;28;20045;-72
2022/09/28 05:29:04;;;;;;;6.47;4.50;;;11.20;99.90;;;;;;5000254;28;20027;-74
2022/09/28 05:31:31;;;;;;;6.90;4.25;;;11.20;99.90;;;;;;5014634;28;20095;-74
2022/09/28 05:33:56;;;;;;;6.28;4.72;;;11.20;99.90;;;;;;5000576;28;20027;-74
2022/09/28 05:36:25;;;;;;;6.90;4.63;;;11.20;99.90;;;;;;5014813;28;20045;-74
2022/09/28 05:38:51;;;;;;;6.72;4.80;;;11.20;99.90;;;;;;5007098;28;20033;-74
2022/09/28 05:41:17;;;;;;;7.63;4.80;;;11.20;99.90;;;;;;5012620;28;20068;-74
2022/09/28 05:43:43;;;;;;;9.07;4.68;;;11.20;99.90;;;;;;5013171;28;20503;-74
2022/09/28 05:46:08;;;;;;;5.90;4.10;;;11.30;99.90;;;;;;5014262;28;20042;-73
2022/09/28 05:48:34;;;;;;;8.15;5.25;;;11.30;99.90;;;;;;4995937;28;20036;-74
2022/09/28 05:51:00;;;;;;;5.57;4.20;;;11.30;99.90;;;;;;5014253;28;20493;-74
2022/09/28 05:53:26;;;;;;;5.63;4.25;;;11.30;99.90;;;;;;5008249;28;20022;-71
2022/09/28 05:55:52;;;;;;;5.68;4.35;;;11.30;99.90;;;;;;5007996;28;20524;-73
2022/09/28 05:58:17;;;;;;;5.78;4.30;;;11.40;99.90;;;;;;5002143;28;20567;-70
2022/09/28 06:00:43;;;;;;;8.07;4.53;;;11.40;99.90;;;;;;5009019;28;20040;-72
2022/09/28 06:03:13;;;;;;;6.20;4.55;;;11.40;99.90;;;;;;5010120;28;20026;-72
2022/09/28 06:05:39;;;;;;;5.13;3.80;;;11.40;99.90;;;;;;4998408;28;20077;-71
2022/09/28 06:08:09;;;;;;;7.47;4.45;;;11.50;99.90;;;;;;5009838;28;20377;-70
2022/09/28 06:10:36;;;;;;;5.95;4.32;;;11.50;99.90;;;;;;5005550;28;20040;-70
2022/09/28 06:13:02;;;;;;;6.43;4.55;;;11.50;99.90;;;;;;5009576;28;20022;-71
2022/09/28 06:15:30;;;;;;;6.43;4.47;;;11.60;99.90;;;;;;5012937;28;20021;-70
2022/09/28 06:18:05;;;;;;;9.75;5.38;;;11.60;99.90;;;;;;5009714;28;20030;-70
2022/09/28 06:20:35;;;;;;;10.00;5.10;;;11.60;99.90;;;;;;4995711;28;20565;-71
2022/09/28 06:23:02;;;;;;;7.72;4.63;;;11.60;99.90;;;;;;5012182;28;20032;-71
2022/09/28 06:25:28;;;;;;;7.60;4.43;;;11.70;99.90;;;;;;5004806;28;20060;-71
2022/09/28 06:28:06;;;;;;;6.80;4.85;;;11.70;99.90;;;;;;5004143;28;20454;-71
2022/09/28 06:30:34;;;;;;;6.72;4.32;;;11.70;99.90;;;;;;5012495;28;20509;-71
2022/09/28 06:33:00;;;;;;;7.50;5.20;;;11.70;99.90;;;;;;5008198;28;20026;-71
2022/09/28 06:35:29;;;;;;;9.13;5.03;;;11.70;99.90;;;;;;5012972;28;20026;-71
2022/09/28 06:37:55;;;;;;;8.10;5.10;;;11.70;99.90;;;;;;5010676;28;20496;-71
2022/09/28 06:40:21;;;;;;;6.63;4.57;;;11.70;99.90;;;;;;5013132;28;20042;-71
2022/09/28 06:43:08;;;;;;;9.48;5.97;;;11.70;99.90;;;;;;5010567;28;20045;-71
2022/09/28 06:45:35;;;;;;;8.35;5.25;;;11.80;99.90;;;;;;5006868;28;20551;-71
2022/09/28 06:48:01;;;;;;;7.78;5.63;;;11.70;99.90;;;;;;5010184;28;20446;-71
2022/09/28 06:50:32;;;;;;;7.38;4.80;;;11.80;99.90;;;;;;5006710;28;20088;-72
2022/09/28 06:53:00;;;;;;;8.15;5.13;;;11.80;99.90;;;;;;4992890;28;20373;-73
2022/09/28 06:55:26;;;;;;;10.77;5.32;;;11.80;99.90;;;;;;5007177;28;20057;-71
2022/09/28 06:58:00;;;;;;;7.82;5.70;;;11.90;99.90;;;;;;5009608;28;20026;-72
2022/09/28 07:00:27;;;;;;;8.20;5.22;;;11.80;99.90;;;;;;5012956;28;20477;-71
2022/09/28 07:02:54;;;;;;;8.70;5.50;;;11.80;99.90;;;;;;5010267;28;20034;-72
2022/09/28 07:05:25;;;;;;;7.63;5.53;;;11.90;99.90;;;;;;4976651;28;20436;-70
2022/09/28 07:07:54;;;;;;;7.40;5.55;;;11.90;99.90;;;;;;5003919;28;20428;-71
2022/09/28 07:10:27;;;;;;;8.02;5.10;;;12.00;99.90;;;;;;5003125;28;20080;-71
2022/09/28 07:12:54;;;;;;;6.93;5.38;;;12.00;99.90;;;;;;5011147;28;20076;-71
2022/09/28 07:15:20;;;;;;;8.23;5.60;;;12.00;99.90;;;;;;4995726;28;20033;-70
2022/09/28 07:17:46;;;;;;;9.30;6.40;;;12.00;99.90;;;;;;4997223;28;20145;-71
2022/09/28 07:20:13;;;;;;;8.55;6.25;;;12.00;99.90;;;;;;5009955;28;20508;-71
2022/09/28 07:22:39;;;;;;;8.73;5.85;;;12.10;99.90;;;;;;4993189;28;20027;-71
2022/09/28 07:25:06;;;;;;;9.20;5.80;;;12.10;99.90;;;;;;5010186;28;20041;-71
2022/09/28 07:27:32;;;;;;;7.90;6.15;;;12.10;99.90;;;;;;5012804;28;20076;-72
2022/09/28 07:29:58;;;;;;;8.48;6.05;;;12.10;99.90;;;;;;5011116;28;20030;-71
2022/09/28 07:32:25;;;;;;;10.60;6.10;;;12.10;99.90;;;;;;5012014;28;20029;-71
2022/09/28 07:34:52;;;;;;;8.75;6.30;;;12.10;99.90;;;;;;5002027;28;20030;-72
2022/09/28 07:37:18;;;;;;;9.60;6.38;;;12.20;99.90;;;;;;4999114;28;20158;-72
2022/09/28 07:42:29;;;;;;;12.23;6.13;;;12.20;99.90;;;;;;5008954;28;20034;-72
2022/09/28 07:44:58;;;;;;;8.57;6.43;;;12.20;99.90;;;;;;4993578;28;20033;-72
2022/09/28 07:47:25;;;;;;;8.55;5.57;;;12.30;99.90;;;;;;4996423;28;20493;-73
2022/09/28 07:49:57;;;;;;;9.07;6.60;;;12.30;99.90;;;;;;5009216;28;20141;-72
2022/09/28 07:52:25;;;;;;;8.30;6.20;;;12.30;99.90;;;;;;5003507;28;20539;-72
2022/09/28 07:54:52;;;;;;;8.43;6.10;;;12.40;99.90;;;;;;5009561;28;20141;-71
2022/09/28 07:57:19;;;;;;;10.35;6.65;;;12.40;99.90;;;;;;4998601;28;20049;-72
2022/09/28 07:59:45;;;;;;;9.20;6.38;;;12.50;99.90;;;;;;4993748;28;20661;-72
2022/09/28 08:02:12;;;;;;;9.80;6.47;;;12.50;99.90;;;;;;5004673;28;20485;-71
2022/09/28 08:04:37;;;;;;;11.30;6.75;;;12.60;99.90;;;;;;4998777;28;20037;-72
2022/09/28 08:07:08;;;;;;;9.80;6.28;;;12.60;99.90;;;;;;5009900;28;20034;-72
2022/09/28 08:09:34;;;;;;;10.45;6.13;;;12.70;99.90;;;;;;5011285;28;20512;-72
2022/09/28 08:11:59;;;;;;;11.88;7.07;;;12.70;99.90;;;;;;5010554;28;20038;-72
2022/09/28 08:14:27;;;;;;;12.85;7.72;;;12.80;99.90;;;;;;5009707;28;20540;-71
2022/09/28 08:16:52;;;;;;;12.48;7.53;;;12.90;99.90;;;;;;4999063;28;20105;-70
2022/09/28 08:19:18;;;;;;;8.07;6.40;;;12.90;99.90;;;;;;5010448;28;20164;-72
2022/09/28 08:21:44;;;;;;;11.00;6.38;;;13.00;99.90;;;;;;5001156;28;20030;-71
2022/09/28 08:24:10;;;;;;;9.68;6.45;;;13.10;99.80;;;;;;4996201;28;20033;-74
2022/09/28 08:26:36;;;;;;;13.90;7.47;;;13.10;99.70;;;;;;5010847;28;20042;-73
2022/09/28 08:29:02;;;;;;;9.80;6.28;;;13.10;99.70;;;;;;5010484;28;20031;-71
2022/09/28 08:31:27;;;;;;;8.38;6.10;;;13.30;99.70;;;;;;5002887;28;20041;-71
2022/09/28 08:33:53;;;;;;;8.80;6.10;;;13.30;99.70;;;;;;4994717;28;20030;-73
2022/09/28 08:36:19;;;;;;;8.13;5.50;;;13.30;99.50;;;;;;5005330;28;20027;-71
2022/09/28 08:38:45;;;;;;;6.88;5.13;;;13.40;99.50;;;;;;4999510;28;20173;-69
2022/09/28 08:41:14;;;;;;;7.65;5.43;;;13.50;99.40;;;;;;4999068;28;20590;-72
2022/09/28 08:43:58;;;;;;;7.30;5.28;;;13.60;99.30;;;;;;4999280;28;20417;-72
2022/09/28 08:46:30;;;;;;;7.72;5.47;;;13.70;99.30;;;;;;5008856;28;20057;-73
2022/09/28 08:49:07;;;;;;;8.40;6.25;;;13.80;99.20;;;;;;5006986;28;20066;-73
2022/09/28 08:51:41;;;;;;;7.28;5.32;;;13.80;99.10;;;;;;5002463;28;20034;-72
2022/09/28 08:54:35;;;;;;;7.38;5.40;;;13.90;99.00;;;;;;5003418;28;20033;-72
2022/09/28 08:57:15;;;;;;;11.10;5.70;;;13.90;99.00;;;;;;4995190;28;20034;-72
2022/09/28 08:59:58;;;;;;;9.15;5.47;;;14.00;99.00;;;;;;5010844;28;20113;-72
2022/09/28 09:02:32;;;;;;;7.03;5.30;;;14.10;98.90;;;;;;4999653;28;20031;-72
2022/09/28 09:05:01;;;;;;;7.77;5.50;;;14.20;98.80;;;;;;4997731;28;20041;-72
2022/09/28 09:07:49;;;;;;;7.90;5.85;;;14.30;98.80;;;;;;4993930;28;21077;-72
2022/09/28 09:10:37;;;;;;;7.15;5.25;;;14.30;98.90;;;;;;4992070;28;20050;-71
2022/09/28 09:13:27;;;;;;;6.63;4.50;;;14.40;98.50;;;;;;5007043;28;20473;-71
2022/09/28 09:16:32;;;;;;;6.05;4.25;;;14.40;98.50;;;;;;4976033;28;20050;-72
2022/09/28 09:19:34;;;;;;;5.88;4.15;;;14.50;98.20;;;;;;4953201;28;20031;-71
2022/09/28 09:22:37;;;;;;;5.22;3.83;;;14.60;98.10;;;;;;5007138;28;20073;-71
2022/09/28 09:25:33;;;;;;;5.65;4.15;;;14.70;98.00;;;;;;4997354;28;20368;-71
2022/09/28 09:28:38;;;;;;;7.13;3.97;;;14.70;97.90;;;;;;5014534;28;20112;-70
2022/09/28 09:31:15;;;;;;;5.25;3.70;;;14.80;97.90;;;;;;5013141;28;20029;-71
2022/09/28 09:33:52;;;;;;;5.15;3.60;;;14.80;97.60;;;;;;4977672;28;20489;-71
2022/09/28 09:36:39;;;;;;;6.35;3.75;;;14.90;97.70;;;;;;4995434;28;20092;-71
2022/09/28 09:39:11;;;;;;;5.05;3.50;;;15.00;97.70;;;;;;4995210;28;20117;-71
2022/09/28 09:41:48;;;;;;;5.88;3.70;;;15.00;97.20;;;;;;5000495;28;20044;-71
2022/09/28 09:44:22;;;;;;;4.82;3.30;;;15.10;97.10;;;;;;5014763;28;20041;-71
2022/09/28 09:46:57;;;;;;;5.88;3.40;;;15.20;97.00;;;;;;5008121;28;20037;-71
2022/09/28 09:49:55;;;;;;;3.20;2.50;;;15.20;96.80;;;;;;4995154;28;20026;-72
2022/09/28 09:52:32;;;;;;;5.88;2.60;;;15.30;96.90;;;;;;4990270;28;20100;-70
2022/09/28 09:55:14;;;;;;;2.83;2.42;;;15.40;96.40;;;;;;4998605;28;20049;-72
2022/09/28 09:57:46;;;;;;;3.90;2.80;;;15.40;96.30;;;;;;5000654;28;20031;-72
2022/09/28 10:00:14;;;;;;;3.80;2.40;;;15.50;96.20;;;;;;4994987;28;20092;-72
2022/09/28 10:02:41;;;;;;;4.22;2.50;;;15.50;96.10;;;;;;4994857;28;20037;-71
2022/09/28 10:05:10;;;;;;;3.90;2.63;;;15.50;96.30;;;;;;4994686;28;20100;-71
2022/09/28 10:07:35;;;;;;;4.03;2.90;;;15.60;96.00;;;;;;4994697;28;20165;-72
2022/09/28 10:10:01;;;;;;;3.92;2.55;;;15.60;95.90;;;;;;4994808;28;20120;-71
2022/09/28 10:12:28;;;;;;;3.72;2.42;;;15.60;95.70;;;;;;4994456;28;20138;-72
2022/09/28 10:14:54;;;;;;;4.13;2.47;;;15.70;95.50;;;;;;4994516;28;20022;-71
2022/09/28 10:17:26;;;;;;;5.18;2.75;;;15.70;95.50;;;;;;4997060;28;20026;-72
2022/09/28 10:19:55;;;;;;;2.95;1.92;;;15.70;95.10;;;;;;5003686;28;20030;-72
2022/09/28 10:22:24;;;;;;;5.80;1.80;;;15.70;94.90;;;;;;5003182;28;20477;-72
2022/09/28 10:24:54;;;;;;;2.28;1.50;;;15.60;94.70;;;;;;5010287;28;20064;-70
2022/09/28 10:27:29;;;;;;;4.25;2.05;;;15.60;94.40;;;;;;4994566;28;20073;-71
2022/09/28 10:29:59;;;;;;;4.18;1.90;;;15.50;94.00;;;;;;4994868;28;20073;-72
2022/09/28 10:32:36;;;;;;;2.55;1.50;;;15.50;94.00;;;;;;5004921;28;20070;-71
2022/09/28 10:35:17;;;;;;;4.07;1.58;;;15.50;93.90;;;;;;4994016;28;20034;-71
2022/09/28 10:37:55;;;;;;;2.70;1.63;;;15.40;94.00;;;;;;5005217;28;20496;-71
2022/09/28 10:40:28;;;;;;;4.45;1.58;;;15.40;94.10;;;;;;5013918;28;20050;-72
2022/09/28 10:43:19;;;;;;;3.45;1.50;;;15.40;94.00;;;;;;5000177;28;20494;-72
2022/09/28 10:45:45;;;;;;;2.60;1.85;;;15.50;94.10;;;;;;5006151;28;20034;-72
2022/09/28 10:48:21;;;;;;;2.92;1.50;;;15.50;94.00;;;;;;4997843;28;20061;-72
2022/09/28 10:51:06;;;;;;;4.65;1.88;;;15.60;94.10;;;;;;4993860;28;20037;-72
2022/09/28 10:53:36;;;;;;;2.17;1.48;;;15.60;94.20;;;;;;4993890;28;20033;-72
2022/09/28 10:56:17;;;;;;;3.88;1.77;;;15.70;94.00;;;;;;4976190;28;20069;-72
2022/09/28 10:58:43;;;;;;;3.42;1.70;;;15.70;93.90;;;;;;4994402;28;20072;-72
2022/09/28 11:01:22;;;;;;;4.05;1.75;;;15.70;93.90;;;;;;4976652;28;20030;-72
2022/09/28 11:03:58;;;;;;;4.57;2.10;;;15.70;93.80;;;;;;4993518;28;20026;-72
2022/09/28 11:06:30;;;;;;;4.25;1.80;;;15.80;93.80;;;;;;4993554;28;20034;-72
2022/09/28 11:09:02;;;;;;;2.25;1.63;;;15.70;93.80;;;;;;5012899;28;20380;-71
2022/09/28 11:11:30;;;;;;;4.35;2.15;;;15.70;93.90;;;;;;5012472;28;20095;-71
2022/09/28 11:13:59;;;;;;;5.05;2.15;;;15.70;93.80;;;;;;4993622;28;21191;-71
2022/09/28 11:16:29;;;;;;;4.22;2.30;;;15.60;93.90;;;;;;5013408;28;20381;-71
2022/09/28 11:18:57;;;;;;;3.88;2.33;;;15.60;93.80;;;;;;5012452;28;20059;-71
2022/09/28 11:21:26;;;;;;;3.67;2.25;;;15.50;93.90;;;;;;5013141;28;20022;-71
2022/09/28 11:24:06;;;;;;;3.95;2.42;;;15.50;94.10;;;;;;4993649;28;20037;-72
2022/09/28 11:26:41;;;;;;;4.80;2.75;;;15.40;94.00;;;;;;4993324;28;20385;-72
2022/09/28 11:29:29;;;;;;;5.70;2.63;;;15.40;94.20;;;;;;5011752;28;20029;-72
2022/09/28 11:32:00;;;;;;;3.78;1.98;;;15.30;94.10;;;;;;5010291;28;20355;-71
2022/09/28 11:34:52;;;;;;;4.95;2.28;;;15.30;94.10;;;;;;4992634;28;20033;-72
2022/09/28 11:37:40;;;;;;;5.32;2.53;;;15.30;94.00;;;;;;4992909;28;20401;-72
2022/09/28 11:40:32;;;;;;;3.38;2.22;;;15.30;93.90;;;;;;5007359;28;20061;-72
2022/09/28 11:43:25;;;;;;;3.58;2.33;;;15.30;94.00;;;;;;5001720;28;20413;-73
2022/09/28 11:46:00;;;;;;;4.80;2.70;;;15.20;94.10;;;;;;5003135;28;20456;-72
2022/09/28 11:48:41;;;;;;;3.58;2.17;;;15.10;94.20;;;;;;4997803;28;20366;-73
2022/09/28 11:51:25;;;;;;;3.13;2.10;;;15.10;94.20;;;;;;4975390;28;20556;-72
2022/09/28 11:53:57;;;;;;;5.05;2.28;;;15.00;94.40;;;;;;4992338;28;20397;-72
2022/09/28 11:56:39;;;;;;;4.53;2.30;;;15.00;94.40;;;;;;4992818;28;20038;-71
2022/09/28 11:59:41;;;;;;;2.38;1.85;;;15.10;94.50;;;;;;4992980;28;20414;-71
2022/09/28 12:02:16;;;;;;;2.70;1.80;;;15.10;94.10;;;;;;4992849;28;20041;-72
2022/09/28 12:04:55;;;;;;;3.08;1.75;;;15.10;93.90;;;;;;5006254;28;20424;-72
2022/09/28 12:07:37;;;;;;;4.35;2.20;;;15.00;93.90;;;;;;5011523;28;20579;-70
2022/09/28 12:10:15;;;;;;;2.35;1.50;;;15.00;93.90;;;;;;5014841;28;20535;-72
2022/09/28 12:13:09;;;;;;;4.05;2.30;;;15.00;94.00;;;;;;4993691;28;20033;-72
2022/09/28 12:15:37;;;;;;;3.33;1.88;;;14.90;94.00;;;;;;4992747;28;20486;-72
2022/09/28 12:18:10;;;;;;;2.88;1.92;;;14.90;94.00;;;;;;5000298;28;20107;-72
2022/09/28 12:20:45;;;;;;;2.50;1.80;;;14.90;93.90;;;;;;5002274;28;20493;-72
2022/09/28 12:23:24;;;;;;;3.08;1.77;;;14.90;93.90;;;;;;5000901;28;20034;-71
2022/09/28 12:26:20;;;;;;;4.13;1.95;;;14.90;93.90;;;;;;4991880;28;20042;-72
2022/09/28 12:28:54;;;;;;;2.65;1.60;;;15.00;93.90;;;;;;4958510;28;20125;-73
2022/09/28 12:31:26;;;;;;;2.30;1.40;;;15.00;93.60;;;;;;4992345;28;20042;-72
2022/09/28 12:33:52;;;;;;;3.15;1.30;;;15.00;93.40;;;;;;4993461;28;20035;-71
2022/09/28 12:36:31;;;;;;;2.58;1.38;;;15.10;93.40;;;;;;4992399;28;20393;-73
2022/09/28 12:39:05;;;;;;;2.30;1.40;;;15.10;93.40;;;;;;4992219;28;20031;-72
2022/09/28 12:41:41;;;;;;;1.95;1.20;;;15.10;93.40;;;;;;4988579;28;20090;-71
2022/09/28 12:44:45;;;;;;;2.00;1.55;;;15.20;93.40;;;;;;4993039;28;20096;-72
2022/09/28 12:47:45;;;;;;;2.75;1.27;;;15.30;93.30;;;;;;4993477;28;20042;-71
2022/09/28 12:50:36;;;;;;;1.95;1.33;;;15.30;93.20;;;;;;5011172;28;20593;-72
2022/09/28 12:53:20;;;;;;;2.13;1.30;;;15.40;93.00;;;;;;5010493;28;20041;-72
2022/09/28 12:55:49;;;;;;;1.98;1.38;;;15.40;92.90;;;;;;5010742;28;20077;-69
2022/09/28 12:58:44;;;;;;;2.03;1.30;;;15.40;92.90;;;;;;5007382;28;20030;-71
2022/09/28 13:01:31;;;;;;;2.78;1.20;;;15.50;92.70;;;;;;5006323;28;20038;-69
2022/09/28 13:04:20;;;;;;;1.48;1.00;;;15.60;92.50;;;;;;5014174;28;20029;-72
2022/09/28 13:07:02;;;;;;;1.60;1.08;;;15.60;92.40;;;;;;5014394;28;20046;-72
2022/09/28 13:09:40;;;;;;;3.22;1.33;;;15.70;92.30;;;;;;4991655;28;20038;-71
2022/09/28 13:12:30;;;;;;;4.63;1.30;;;15.60;92.50;;;;;;5012131;28;20068;-71
2022/09/28 13:15:44;;;;;;;2.15;1.05;;;15.70;92.20;;;;;;5005160;28;20061;-71
2022/09/28 13:18:36;;;;;;;2.05;1.40;;;15.60;92.20;;;;;;4953313;28;20041;-71